sensor_id;sensor_type;location;lat;lon;timestamp;P1;durP1;ratioP1;P2;durP2;ratioP2
23866;SDS011;12114;53.404;-1.502;2023-02-24T00:01:01;13.65;;;4.05;;
23866;SDS011;12114;53.404;-1.502;2023-02-24T00:03:34;9.43;;;3.65;;
23866;SDS011;12114;53.404;-1.502;2023-02-24T00:05:59;12.13;;;3.38;;
23866;SDS011;12114;53.404;-1.502;2023-02-24T00:08:24;16.23;;;4.75;;
23866;SDS011;12114;53.404;-1.502;2023-02-24T00:10:49;11.13;;;4.28;;
23866;SDS011;12114;53.404;-1.502;2023-02-24T00:13:16;14.50;;;4.45;;
23866;SDS011;12114;53.404;-1.502;2023-02-24T00:15:56;14.38;;;4.72;;
23866;SDS011;12114;53.404;-1.502;2023-02-24T00:18:21;13.73;;;4.72;;
23866;SDS011;12114;53.404;-1.502;2023-02-24T00:20:46;11.25;;;4.40;;
23866;SDS011;12114;53.404;-1.502;2023-02-24T00:23:12;9.80;;;4.60;;
23866;SDS011;12114;53.404;-1.502;2023-02-24T00:25:42;9.82;;;4.20;;
23866;SDS011;12114;53.404;-1.502;2023-02-24T00:28:07;10.40;;;4.53;;
23866;SDS011;12114;53.404;-1.502;2023-02-24T00:30:33;14.95;;;5.20;;
23866;SDS011;12114;53.404;-1.502;2023-02-24T00:32:58;11.27;;;4.88;;
23866;SDS011;12114;53.404;-1.502;2023-02-24T00:35:26;13.38;;;5.55;;
23866;SDS011;12114;53.404;-1.502;2023-02-24T00:37:51;13.98;;;5.38;;
23866;SDS011;12114;53.404;-1.502;2023-02-24T00:40:18;7.95;;;5.05;;
23866;SDS011;12114;53.404;-1.502;2023-02-24T00:42:47;9.15;;;5.40;;
23866;SDS011;12114;53.404;-1.502;2023-02-24T00:45:12;13.27;;;5.32;;
23866;SDS011;12114;53.404;-1.502;2023-02-24T00:47:40;10.65;;;5.43;;
23866;SDS011;12114;53.404;-1.502;2023-02-24T00:50:06;12.02;;;5.93;;
23866;SDS011;12114;53.404;-1.502;2023-02-24T00:52:32;12.60;;;5.63;;
23866;SDS011;12114;53.404;-1.502;2023-02-24T00:54:57;10.77;;;5.65;;
23866;SDS011;12114;53.404;-1.502;2023-02-24T00:57:23;15.00;;;5.65;;
23866;SDS011;12114;53.404;-1.502;2023-02-24T00:59:48;8.88;;;5.03;;
23866;SDS011;12114;53.404;-1.502;2023-02-24T01:02:15;8.82;;;4.90;;
23866;SDS011;12114;53.404;-1.502;2023-02-24T01:04:40;7.97;;;5.03;;
23866;SDS011;12114;53.404;-1.502;2023-02-24T01:07:08;9.07;;;4.93;;
23866;SDS011;12114;53.404;-1.502;2023-02-24T01:09:34;6.75;;;4.50;;
23866;SDS011;12114;53.404;-1.502;2023-02-24T01:12:00;5.88;;;4.07;;
23866;SDS011;12114;53.404;-1.502;2023-02-24T01:14:45;4.82;;;3.38;;
23866;SDS011;12114;53.404;-1.502;2023-02-24T01:17:14;7.88;;;3.17;;
23866;SDS011;12114;53.404;-1.502;2023-02-24T01:19:39;7.68;;;3.35;;
23866;SDS011;12114;53.404;-1.502;2023-02-24T01:22:07;6.50;;;2.70;;
23866;SDS011;12114;53.404;-1.502;2023-02-24T01:24:34;5.57;;;2.58;;
23866;SDS011;12114;53.404;-1.502;2023-02-24T01:26:59;3.95;;;1.98;;
23866;SDS011;12114;53.404;-1.502;2023-02-24T01:29:24;4.47;;;2.40;;
23866;SDS011;12114;53.404;-1.502;2023-02-24T01:31:50;2.60;;;1.33;;
23866;SDS011;12114;53.404;-1.502;2023-02-24T01:34:16;3.78;;;1.63;;
23866;SDS011;12114;53.404;-1.502;2023-02-24T01:36:42;3.10;;;1.70;;
23866;SDS011;12114;53.404;-1.502;2023-02-24T01:39:08;4.32;;;1.80;;
23866;SDS011;12114;53.404;-1.502;2023-02-24T01:41:38;2.70;;;1.55;;
23866;SDS011;12114;53.404;-1.502;2023-02-24T01:44:58;2.42;;;1.45;;
23866;SDS011;12114;53.404;-1.502;2023-02-24T01:46:53;3.63;;;1.75;;
23866;SDS011;12114;53.404;-1.502;2023-02-24T01:55:00;3.78;;;2.05;;
23866;SDS011;12114;53.404;-1.502;2023-02-24T01:57:19;4.75;;;2.05;;
23866;SDS011;12114;53.404;-1.502;2023-02-24T01:59:49;2.90;;;1.80;;
23866;SDS011;12114;53.404;-1.502;2023-02-24T02:02:15;5.32;;;1.83;;
23866;SDS011;12114;53.404;-1.502;2023-02-24T02:04:45;2.88;;;1.52;;
23866;SDS011;12114;53.404;-1.502;2023-02-24T02:07:12;2.67;;;1.40;;
23866;SDS011;12114;53.404;-1.502;2023-02-24T02:09:39;2.92;;;1.88;;
23866;SDS011;12114;53.404;-1.502;2023-02-24T02:12:06;3.95;;;1.75;;
23866;SDS011;12114;53.404;-1.502;2023-02-24T02:14:31;4.22;;;1.90;;
23866;SDS011;12114;53.404;-1.502;2023-02-24T02:27:13;4.07;;;1.75;;
23866;SDS011;12114;53.404;-1.502;2023-02-24T02:37:58;4.45;;;2.30;;
23866;SDS011;12114;53.404;-1.502;2023-02-24T02:40:32;6.80;;;2.53;;
23866;SDS011;12114;53.404;-1.502;2023-02-24T02:43:15;4.30;;;2.42;;
23866;SDS011;12114;53.404;-1.502;2023-02-24T02:45:47;6.60;;;1.95;;
23866;SDS011;12114;53.404;-1.502;2023-02-24T02:48:18;3.90;;;2.20;;
23866;SDS011;12114;53.404;-1.502;2023-02-24T02:50:56;6.07;;;2.22;;
23866;SDS011;12114;53.404;-1.502;2023-02-24T02:56:06;6.22;;;2.55;;
23866;SDS011;12114;53.404;-1.502;2023-02-24T02:58:34;8.57;;;2.90;;
23866;SDS011;12114;53.404;-1.502;2023-02-24T03:01:00;5.03;;;2.22;;
23866;SDS011;12114;53.404;-1.502;2023-02-24T03:03:31;7.32;;;2.72;;
23866;SDS011;12114;53.404;-1.502;2023-02-24T03:06:06;5.25;;;2.20;;
23866;SDS011;12114;53.404;-1.502;2023-02-24T03:08:35;7.57;;;2.70;;
23866;SDS011;12114;53.404;-1.502;2023-02-24T03:11:02;8.00;;;2.67;;
23866;SDS011;12114;53.404;-1.502;2023-02-24T03:13:30;7.85;;;3.03;;
23866;SDS011;12114;53.404;-1.502;2023-02-24T03:15:58;13.55;;;3.72;;
23866;SDS011;12114;53.404;-1.502;2023-02-24T03:18:27;12.50;;;3.63;;
23866;SDS011;12114;53.404;-1.502;2023-02-24T03:20:56;9.00;;;3.50;;
23866;SDS011;12114;53.404;-1.502;2023-02-24T03:23:24;11.73;;;3.88;;
23866;SDS011;12114;53.404;-1.502;2023-02-24T03:28:32;13.55;;;3.75;;
23866;SDS011;12114;53.404;-1.502;2023-02-24T03:33:51;14.38;;;3.95;;
23866;SDS011;12114;53.404;-1.502;2023-02-24T03:36:17;14.93;;;4.18;;
23866;SDS011;12114;53.404;-1.502;2023-02-24T03:38:42;13.10;;;3.97;;
23866;SDS011;12114;53.404;-1.502;2023-02-24T03:41:08;17.45;;;4.20;;
23866;SDS011;12114;53.404;-1.502;2023-02-24T03:43:35;18.10;;;4.10;;
23866;SDS011;12114;53.404;-1.502;2023-02-24T03:46:03;15.60;;;4.13;;
23866;SDS011;12114;53.404;-1.502;2023-02-24T03:48:28;16.30;;;3.85;;
23866;SDS011;12114;53.404;-1.502;2023-02-24T03:50:54;17.38;;;4.30;;
23866;SDS011;12114;53.404;-1.502;2023-02-24T03:53:36;15.90;;;4.30;;
23866;SDS011;12114;53.404;-1.502;2023-02-24T04:06:57;13.35;;;3.17;;
23866;SDS011;12114;53.404;-1.502;2023-02-24T04:09:28;11.80;;;2.58;;
23866;SDS011;12114;53.404;-1.502;2023-02-24T04:16:51;5.73;;;2.00;;
23866;SDS011;12114;53.404;-1.502;2023-02-24T04:19:18;5.38;;;1.92;;
23866;SDS011;12114;53.404;-1.502;2023-02-24T04:21:45;7.72;;;2.00;;
23866;SDS011;12114;53.404;-1.502;2023-02-24T04:24:12;6.95;;;1.92;;
23866;SDS011;12114;53.404;-1.502;2023-02-24T04:26:43;8.07;;;2.33;;
23866;SDS011;12114;53.404;-1.502;2023-02-24T04:29:09;6.53;;;1.85;;
23866;SDS011;12114;53.404;-1.502;2023-02-24T04:31:42;14.07;;;2.15;;
23866;SDS011;12114;53.404;-1.502;2023-02-24T04:34:07;7.63;;;2.08;;
23866;SDS011;12114;53.404;-1.502;2023-02-24T04:36:33;8.00;;;2.13;;
23866;SDS011;12114;53.404;-1.502;2023-02-24T04:38:58;6.22;;;1.80;;
23866;SDS011;12114;53.404;-1.502;2023-02-24T04:41:24;7.85;;;1.80;;
23866;SDS011;12114;53.404;-1.502;2023-02-24T04:43:49;4.78;;;1.85;;
23866;SDS011;12114;53.404;-1.502;2023-02-24T04:46:16;6.25;;;2.20;;
23866;SDS011;12114;53.404;-1.502;2023-02-24T04:48:41;4.40;;;1.63;;
23866;SDS011;12114;53.404;-1.502;2023-02-24T04:51:06;8.23;;;2.03;;
23866;SDS011;12114;53.404;-1.502;2023-02-24T04:53:32;4.28;;;1.38;;
23866;SDS011;12114;53.404;-1.502;2023-02-24T04:56:00;4.60;;;1.33;;
23866;SDS011;12114;53.404;-1.502;2023-02-24T04:58:26;5.22;;;1.23;;
23866;SDS011;12114;53.404;-1.502;2023-02-24T05:00:55;4.88;;;1.27;;
23866;SDS011;12114;53.404;-1.502;2023-02-24T05:03:21;5.65;;;1.98;;
23866;SDS011;12114;53.404;-1.502;2023-02-24T05:05:50;5.70;;;1.83;;
23866;SDS011;12114;53.404;-1.502;2023-02-24T05:08:22;12.35;;;2.60;;
23866;SDS011;12114;53.404;-1.502;2023-02-24T05:10:48;8.35;;;2.10;;
23866;SDS011;12114;53.404;-1.502;2023-02-24T05:13:15;6.93;;;2.50;;
23866;SDS011;12114;53.404;-1.502;2023-02-24T05:15:41;10.45;;;3.00;;
23866;SDS011;12114;53.404;-1.502;2023-02-24T05:18:10;7.03;;;2.63;;
23866;SDS011;12114;53.404;-1.502;2023-02-24T05:20:44;5.20;;;2.17;;
23866;SDS011;12114;53.404;-1.502;2023-02-24T05:23:39;6.07;;;1.88;;
23866;SDS011;12114;53.404;-1.502;2023-02-24T05:26:05;11.23;;;2.17;;
23866;SDS011;12114;53.404;-1.502;2023-02-24T05:28:37;6.10;;;2.13;;
23866;SDS011;12114;53.404;-1.502;2023-02-24T05:31:11;5.95;;;2.08;;
23866;SDS011;12114;53.404;-1.502;2023-02-24T05:33:43;17.52;;;2.70;;
23866;SDS011;12114;53.404;-1.502;2023-02-24T05:36:10;8.95;;;2.42;;
23866;SDS011;12114;53.404;-1.502;2023-02-24T05:38:36;5.68;;;2.10;;
23866;SDS011;12114;53.404;-1.502;2023-02-24T05:41:17;8.23;;;1.90;;
23866;SDS011;12114;53.404;-1.502;2023-02-24T05:43:44;10.90;;;2.88;;
23866;SDS011;12114;53.404;-1.502;2023-02-24T05:46:15;8.65;;;2.78;;
23866;SDS011;12114;53.404;-1.502;2023-02-24T05:48:41;12.90;;;2.55;;
23866;SDS011;12114;53.404;-1.502;2023-02-24T05:51:08;8.55;;;2.05;;
23866;SDS011;12114;53.404;-1.502;2023-02-24T05:53:36;9.30;;;2.60;;
23866;SDS011;12114;53.404;-1.502;2023-02-24T05:56:05;7.53;;;2.42;;
23866;SDS011;12114;53.404;-1.502;2023-02-24T05:58:30;14.82;;;2.28;;
23866;SDS011;12114;53.404;-1.502;2023-02-24T06:00:56;9.48;;;2.28;;
23866;SDS011;12114;53.404;-1.502;2023-02-24T06:03:22;9.73;;;1.85;;
23866;SDS011;12114;53.404;-1.502;2023-02-24T06:05:58;10.45;;;2.28;;
23866;SDS011;12114;53.404;-1.502;2023-02-24T06:08:29;5.93;;;1.70;;
23866;SDS011;12114;53.404;-1.502;2023-02-24T06:11:06;6.20;;;1.48;;
23866;SDS011;12114;53.404;-1.502;2023-02-24T06:13:32;7.80;;;2.53;;
23866;SDS011;12114;53.404;-1.502;2023-02-24T06:15:58;8.57;;;1.92;;
23866;SDS011;12114;53.404;-1.502;2023-02-24T06:18:26;9.60;;;1.77;;
23866;SDS011;12114;53.404;-1.502;2023-02-24T06:20:51;6.60;;;1.60;;
23866;SDS011;12114;53.404;-1.502;2023-02-24T06:23:17;7.38;;;1.52;;
23866;SDS011;12114;53.404;-1.502;2023-02-24T06:25:43;6.53;;;1.20;;
23866;SDS011;12114;53.404;-1.502;2023-02-24T06:28:09;7.00;;;1.50;;
23866;SDS011;12114;53.404;-1.502;2023-02-24T06:30:34;5.90;;;1.67;;
23866;SDS011;12114;53.404;-1.502;2023-02-24T06:33:05;8.20;;;1.33;;
23866;SDS011;12114;53.404;-1.502;2023-02-24T06:35:34;6.93;;;1.50;;
23866;SDS011;12114;53.404;-1.502;2023-02-24T06:38:02;4.90;;;1.05;;
23866;SDS011;12114;53.404;-1.502;2023-02-24T06:40:28;6.43;;;1.30;;
23866;SDS011;12114;53.404;-1.502;2023-02-24T06:42:55;4.65;;;1.25;;
23866;SDS011;12114;53.404;-1.502;2023-02-24T06:45:23;7.97;;;1.42;;
23866;SDS011;12114;53.404;-1.502;2023-02-24T06:47:50;7.80;;;1.67;;
23866;SDS011;12114;53.404;-1.502;2023-02-24T06:50:18;6.63;;;1.45;;
23866;SDS011;12114;53.404;-1.502;2023-02-24T06:52:47;9.43;;;1.15;;
23866;SDS011;12114;53.404;-1.502;2023-02-24T06:55:13;6.47;;;1.77;;
23866;SDS011;12114;53.404;-1.502;2023-02-24T06:57:58;6.97;;;1.42;;
23866;SDS011;12114;53.404;-1.502;2023-02-24T07:00:29;5.85;;;1.30;;
23866;SDS011;12114;53.404;-1.502;2023-02-24T07:03:04;5.05;;;1.30;;
23866;SDS011;12114;53.404;-1.502;2023-02-24T07:05:40;6.75;;;1.10;;
23866;SDS011;12114;53.404;-1.502;2023-02-24T07:08:06;8.70;;;1.40;;
23866;SDS011;12114;53.404;-1.502;2023-02-24T07:10:32;6.97;;;1.67;;
23866;SDS011;12114;53.404;-1.502;2023-02-24T07:12:58;5.47;;;1.15;;
23866;SDS011;12114;53.404;-1.502;2023-02-24T07:15:23;8.02;;;1.67;;
23866;SDS011;12114;53.404;-1.502;2023-02-24T07:17:48;6.13;;;1.25;;
23866;SDS011;12114;53.404;-1.502;2023-02-24T07:20:14;6.32;;;1.40;;
23866;SDS011;12114;53.404;-1.502;2023-02-24T07:22:49;7.63;;;1.30;;
23866;SDS011;12114;53.404;-1.502;2023-02-24T07:25:14;10.38;;;1.42;;
23866;SDS011;12114;53.404;-1.502;2023-02-24T07:27:56;6.80;;;1.70;;
23866;SDS011;12114;53.404;-1.502;2023-02-24T07:30:23;10.50;;;1.92;;
23866;SDS011;12114;53.404;-1.502;2023-02-24T07:32:50;11.25;;;1.90;;
23866;SDS011;12114;53.404;-1.502;2023-02-24T07:35:19;12.77;;;2.05;;
23866;SDS011;12114;53.404;-1.502;2023-02-24T07:37:44;12.60;;;1.80;;
23866;SDS011;12114;53.404;-1.502;2023-02-24T07:40:13;8.40;;;1.73;;
23866;SDS011;12114;53.404;-1.502;2023-02-24T07:42:41;7.88;;;1.38;;
23866;SDS011;12114;53.404;-1.502;2023-02-24T07:45:07;7.03;;;1.48;;
23866;SDS011;12114;53.404;-1.502;2023-02-24T07:47:32;7.93;;;1.45;;
23866;SDS011;12114;53.404;-1.502;2023-02-24T07:49:59;8.70;;;1.63;;
23866;SDS011;12114;53.404;-1.502;2023-02-24T07:52:27;6.20;;;1.70;;
23866;SDS011;12114;53.404;-1.502;2023-02-24T07:54:52;11.90;;;1.60;;
23866;SDS011;12114;53.404;-1.502;2023-02-24T07:57:19;11.48;;;1.70;;
23866;SDS011;12114;53.404;-1.502;2023-02-24T07:59:44;11.52;;;2.05;;
23866;SDS011;12114;53.404;-1.502;2023-02-24T08:02:10;11.68;;;1.95;;
23866;SDS011;12114;53.404;-1.502;2023-02-24T08:04:37;10.40;;;1.38;;
23866;SDS011;12114;53.404;-1.502;2023-02-24T08:07:05;7.78;;;1.50;;
23866;SDS011;12114;53.404;-1.502;2023-02-24T08:09:38;11.13;;;1.63;;
23866;SDS011;12114;53.404;-1.502;2023-02-24T08:12:10;10.20;;;2.55;;
23866;SDS011;12114;53.404;-1.502;2023-02-24T08:14:35;10.30;;;1.98;;
23866;SDS011;12114;53.404;-1.502;2023-02-24T08:17:08;11.48;;;1.60;;
23866;SDS011;12114;53.404;-1.502;2023-02-24T08:19:34;8.65;;;2.20;;
23866;SDS011;12114;53.404;-1.502;2023-02-24T08:22:06;13.52;;;2.15;;
23866;SDS011;12114;53.404;-1.502;2023-02-24T08:24:44;6.53;;;1.10;;
23866;SDS011;12114;53.404;-1.502;2023-02-24T08:27:14;9.27;;;1.70;;
23866;SDS011;12114;53.404;-1.502;2023-02-24T08:29:39;10.38;;;1.35;;
23866;SDS011;12114;53.404;-1.502;2023-02-24T08:32:22;10.57;;;1.95;;
23866;SDS011;12114;53.404;-1.502;2023-02-24T08:34:48;9.75;;;1.83;;
23866;SDS011;12114;53.404;-1.502;2023-02-24T08:37:13;6.07;;;1.42;;
23866;SDS011;12114;53.404;-1.502;2023-02-24T08:39:39;8.40;;;1.88;;
23866;SDS011;12114;53.404;-1.502;2023-02-24T08:42:05;9.15;;;1.50;;
23866;SDS011;12114;53.404;-1.502;2023-02-24T08:44:31;7.63;;;1.55;;
23866;SDS011;12114;53.404;-1.502;2023-02-24T08:46:59;11.32;;;1.50;;
23866;SDS011;12114;53.404;-1.502;2023-02-24T08:49:24;12.88;;;1.73;;
23866;SDS011;12114;53.404;-1.502;2023-02-24T08:51:52;9.90;;;2.05;;
23866;SDS011;12114;53.404;-1.502;2023-02-24T08:54:19;7.20;;;1.30;;
23866;SDS011;12114;53.404;-1.502;2023-02-24T08:56:51;9.82;;;1.33;;
23866;SDS011;12114;53.404;-1.502;2023-02-24T08:59:20;7.85;;;1.90;;
23866;SDS011;12114;53.404;-1.502;2023-02-24T09:02:12;7.93;;;1.52;;
23866;SDS011;12114;53.404;-1.502;2023-02-24T09:09:44;6.43;;;1.00;;
23866;SDS011;12114;53.404;-1.502;2023-02-24T09:12:11;6.50;;;1.00;;
23866;SDS011;12114;53.404;-1.502;2023-02-24T09:14:46;7.97;;;1.40;;
23866;SDS011;12114;53.404;-1.502;2023-02-24T09:17:13;7.20;;;1.10;;
23866;SDS011;12114;53.404;-1.502;2023-02-24T09:22:10;7.10;;;0.90;;
23866;SDS011;12114;53.404;-1.502;2023-02-24T09:25:12;6.50;;;1.35;;
23866;SDS011;12114;53.404;-1.502;2023-02-24T09:27:54;5.03;;;1.20;;
23866;SDS011;12114;53.404;-1.502;2023-02-24T09:30:32;5.15;;;1.10;;
23866;SDS011;12114;53.404;-1.502;2023-02-24T09:33:34;3.45;;;0.90;;
23866;SDS011;12114;53.404;-1.502;2023-02-24T09:35:59;7.93;;;1.77;;
23866;SDS011;12114;53.404;-1.502;2023-02-24T09:38:33;5.13;;;0.90;;
23866;SDS011;12114;53.404;-1.502;2023-02-24T09:41:22;6.20;;;1.40;;
23866;SDS011;12114;53.404;-1.502;2023-02-24T09:43:56;4.50;;;1.00;;
23866;SDS011;12114;53.404;-1.502;2023-02-24T09:46:32;7.20;;;1.50;;
23866;SDS011;12114;53.404;-1.502;2023-02-24T09:49:01;3.47;;;0.85;;
23866;SDS011;12114;53.404;-1.502;2023-02-24T09:51:30;4.00;;;0.70;;
23866;SDS011;12114;53.404;-1.502;2023-02-24T09:54:15;6.32;;;0.93;;
23866;SDS011;12114;53.404;-1.502;2023-02-24T09:56:48;3.38;;;0.60;;
23866;SDS011;12114;53.404;-1.502;2023-02-24T09:59:20;3.55;;;0.80;;
23866;SDS011;12114;53.404;-1.502;2023-02-24T10:07:14;7.90;;;1.45;;
23866;SDS011;12114;53.404;-1.502;2023-02-24T10:09:42;4.13;;;1.40;;
23866;SDS011;12114;53.404;-1.502;2023-02-24T10:14:49;5.60;;;1.63;;
23866;SDS011;12114;53.404;-1.502;2023-02-24T10:17:39;9.30;;;2.25;;
23866;SDS011;12114;53.404;-1.502;2023-02-24T10:22:51;12.00;;;1.90;;
23866;SDS011;12114;53.404;-1.502;2023-02-24T10:25:24;7.57;;;1.50;;
23866;SDS011;12114;53.404;-1.502;2023-02-24T10:30:39;7.47;;;1.67;;
23866;SDS011;12114;53.404;-1.502;2023-02-24T10:35:37;11.60;;;2.25;;
23866;SDS011;12114;53.404;-1.502;2023-02-24T10:38:03;7.95;;;1.67;;
23866;SDS011;12114;53.404;-1.502;2023-02-24T10:40:33;13.82;;;2.10;;
23866;SDS011;12114;53.404;-1.502;2023-02-24T10:43:19;6.05;;;1.65;;
23866;SDS011;12114;53.404;-1.502;2023-02-24T10:45:53;8.90;;;2.22;;
23866;SDS011;12114;53.404;-1.502;2023-02-24T10:48:31;10.73;;;2.30;;
23866;SDS011;12114;53.404;-1.502;2023-02-24T10:51:06;6.05;;;1.30;;
23866;SDS011;12114;53.404;-1.502;2023-02-24T10:53:34;11.38;;;1.92;;
23866;SDS011;12114;53.404;-1.502;2023-02-24T10:56:06;10.68;;;1.85;;
23866;SDS011;12114;53.404;-1.502;2023-02-24T11:01:54;13.52;;;2.22;;
23866;SDS011;12114;53.404;-1.502;2023-02-24T11:04:28;9.20;;;2.17;;
23866;SDS011;12114;53.404;-1.502;2023-02-24T11:07:14;8.30;;;1.92;;
23866;SDS011;12114;53.404;-1.502;2023-02-24T11:10:05;7.97;;;1.73;;
23866;SDS011;12114;53.404;-1.502;2023-02-24T11:12:44;10.68;;;2.22;;
23866;SDS011;12114;53.404;-1.502;2023-02-24T11:18:18;12.55;;;2.30;;
23866;SDS011;12114;53.404;-1.502;2023-02-24T11:20:46;12.10;;;2.03;;
23866;SDS011;12114;53.404;-1.502;2023-02-24T11:23:13;12.23;;;2.58;;
23866;SDS011;12114;53.404;-1.502;2023-02-24T11:25:45;10.93;;;2.08;;
23866;SDS011;12114;53.404;-1.502;2023-02-24T11:28:15;12.18;;;1.92;;
23866;SDS011;12114;53.404;-1.502;2023-02-24T11:30:55;14.38;;;2.80;;
23866;SDS011;12114;53.404;-1.502;2023-02-24T11:36:00;17.98;;;2.60;;
23866;SDS011;12114;53.404;-1.502;2023-02-24T11:38:56;12.15;;;2.28;;
23866;SDS011;12114;53.404;-1.502;2023-02-24T11:41:25;17.02;;;2.97;;
23866;SDS011;12114;53.404;-1.502;2023-02-24T11:43:56;13.38;;;2.70;;
23866;SDS011;12114;53.404;-1.502;2023-02-24T11:46:25;14.10;;;2.28;;
23866;SDS011;12114;53.404;-1.502;2023-02-24T11:48:57;14.90;;;2.55;;
23866;SDS011;12114;53.404;-1.502;2023-02-24T11:51:27;14.07;;;2.70;;
23866;SDS011;12114;53.404;-1.502;2023-02-24T11:53:54;10.88;;;2.55;;
23866;SDS011;12114;53.404;-1.502;2023-02-24T12:06:18;14.32;;;2.67;;
23866;SDS011;12114;53.404;-1.502;2023-02-24T12:08:45;13.70;;;2.60;;
23866;SDS011;12114;53.404;-1.502;2023-02-24T12:11:17;10.98;;;2.45;;
23866;SDS011;12114;53.404;-1.502;2023-02-24T12:13:59;9.43;;;2.40;;
23866;SDS011;12114;53.404;-1.502;2023-02-24T12:16:30;8.88;;;2.17;;
23866;SDS011;12114;53.404;-1.502;2023-02-24T12:23:56;11.93;;;2.50;;
23866;SDS011;12114;53.404;-1.502;2023-02-24T12:39:19;10.93;;;2.30;;
23866;SDS011;12114;53.404;-1.502;2023-02-24T12:42:04;12.32;;;2.40;;
23866;SDS011;12114;53.404;-1.502;2023-02-24T12:47:08;14.25;;;2.40;;
23866;SDS011;12114;53.404;-1.502;2023-02-24T12:49:39;12.30;;;2.25;;
23866;SDS011;12114;53.404;-1.502;2023-02-24T12:52:13;15.25;;;3.35;;
23866;SDS011;12114;53.404;-1.502;2023-02-24T12:57:16;15.10;;;3.00;;
23866;SDS011;12114;53.404;-1.502;2023-02-24T12:59:42;18.33;;;2.42;;
23866;SDS011;12114;53.404;-1.502;2023-02-24T13:12:29;15.35;;;3.20;;
23866;SDS011;12114;53.404;-1.502;2023-02-24T13:15:02;16.00;;;2.80;;
23866;SDS011;12114;53.404;-1.502;2023-02-24T13:17:28;13.38;;;2.95;;
23866;SDS011;12114;53.404;-1.502;2023-02-24T13:19:54;11.88;;;2.78;;
23866;SDS011;12114;53.404;-1.502;2023-02-24T13:22:22;10.25;;;2.30;;
23866;SDS011;12114;53.404;-1.502;2023-02-24T13:27:20;12.68;;;2.28;;
23866;SDS011;12114;53.404;-1.502;2023-02-24T13:29:49;9.38;;;2.60;;
23866;SDS011;12114;53.404;-1.502;2023-02-24T13:32:35;10.48;;;1.90;;
23866;SDS011;12114;53.404;-1.502;2023-02-24T13:35:02;9.70;;;2.30;;
23866;SDS011;12114;53.404;-1.502;2023-02-24T13:37:36;8.93;;;1.80;;
23866;SDS011;12114;53.404;-1.502;2023-02-24T13:45:40;12.05;;;1.83;;
23866;SDS011;12114;53.404;-1.502;2023-02-24T13:48:16;10.07;;;2.35;;
23866;SDS011;12114;53.404;-1.502;2023-02-24T13:50:56;7.57;;;2.03;;
23866;SDS011;12114;53.404;-1.502;2023-02-24T14:01:08;10.00;;;2.60;;
23866;SDS011;12114;53.404;-1.502;2023-02-24T14:03:35;13.95;;;2.67;;
23866;SDS011;12114;53.404;-1.502;2023-02-24T14:06:01;12.27;;;2.50;;
23866;SDS011;12114;53.404;-1.502;2023-02-24T14:08:40;10.88;;;2.40;;
23866;SDS011;12114;53.404;-1.502;2023-02-24T14:11:09;14.98;;;2.20;;
23866;SDS011;12114;53.404;-1.502;2023-02-24T14:13:36;10.70;;;2.15;;
23866;SDS011;12114;53.404;-1.502;2023-02-24T14:16:08;9.07;;;2.45;;
23866;SDS011;12114;53.404;-1.502;2023-02-24T14:18:33;10.27;;;2.33;;
23866;SDS011;12114;53.404;-1.502;2023-02-24T14:21:00;12.10;;;2.08;;
23866;SDS011;12114;53.404;-1.502;2023-02-24T14:23:27;11.82;;;2.00;;
23866;SDS011;12114;53.404;-1.502;2023-02-24T14:26:00;16.15;;;3.20;;
23866;SDS011;12114;53.404;-1.502;2023-02-24T14:28:30;11.18;;;2.03;;
23866;SDS011;12114;53.404;-1.502;2023-02-24T14:30:56;9.05;;;1.45;;
23866;SDS011;12114;53.404;-1.502;2023-02-24T14:33:24;9.40;;;2.03;;
23866;SDS011;12114;53.404;-1.502;2023-02-24T14:35:51;12.02;;;1.70;;
23866;SDS011;12114;53.404;-1.502;2023-02-24T14:41:21;11.25;;;1.85;;
23866;SDS011;12114;53.404;-1.502;2023-02-24T14:46:12;12.77;;;2.20;;
23866;SDS011;12114;53.404;-1.502;2023-02-24T14:48:37;11.77;;;2.03;;
23866;SDS011;12114;53.404;-1.502;2023-02-24T14:51:18;13.30;;;1.83;;
23866;SDS011;12114;53.404;-1.502;2023-02-24T14:53:53;11.77;;;1.63;;
23866;SDS011;12114;53.404;-1.502;2023-02-24T14:56:20;7.85;;;1.55;;
23866;SDS011;12114;53.404;-1.502;2023-02-24T14:58:47;5.72;;;1.40;;
23866;SDS011;12114;53.404;-1.502;2023-02-24T15:01:19;8.25;;;1.58;;
23866;SDS011;12114;53.404;-1.502;2023-02-24T15:03:51;6.88;;;1.30;;
23866;SDS011;12114;53.404;-1.502;2023-02-24T15:06:19;8.68;;;1.38;;
23866;SDS011;12114;53.404;-1.502;2023-02-24T15:08:56;11.25;;;1.67;;
23866;SDS011;12114;53.404;-1.502;2023-02-24T15:11:24;5.55;;;1.67;;
23866;SDS011;12114;53.404;-1.502;2023-02-24T15:13:53;7.80;;;1.23;;
23866;SDS011;12114;53.404;-1.502;2023-02-24T15:16:20;7.55;;;1.42;;
23866;SDS011;12114;53.404;-1.502;2023-02-24T15:18:50;4.38;;;1.30;;
23866;SDS011;12114;53.404;-1.502;2023-02-24T15:21:57;6.43;;;1.17;;
23866;SDS011;12114;53.404;-1.502;2023-02-24T15:26:51;8.60;;;1.30;;
23866;SDS011;12114;53.404;-1.502;2023-02-24T15:29:25;9.27;;;2.00;;
23866;SDS011;12114;53.404;-1.502;2023-02-24T15:31:52;8.43;;;1.50;;
23866;SDS011;12114;53.404;-1.502;2023-02-24T15:34:18;11.05;;;1.70;;
23866;SDS011;12114;53.404;-1.502;2023-02-24T15:36:44;13.65;;;1.90;;
23866;SDS011;12114;53.404;-1.502;2023-02-24T15:39:16;12.50;;;1.90;;
23866;SDS011;12114;53.404;-1.502;2023-02-24T15:41:45;9.15;;;1.33;;
23866;SDS011;12114;53.404;-1.502;2023-02-24T15:44:24;4.70;;;1.13;;
23866;SDS011;12114;53.404;-1.502;2023-02-24T15:46:50;9.27;;;1.17;;
23866;SDS011;12114;53.404;-1.502;2023-02-24T15:49:15;6.93;;;1.23;;
23866;SDS011;12114;53.404;-1.502;2023-02-24T15:51:43;6.68;;;1.10;;
23866;SDS011;12114;53.404;-1.502;2023-02-24T15:56:41;6.93;;;1.27;;
23866;SDS011;12114;53.404;-1.502;2023-02-24T15:59:08;4.88;;;1.02;;
23866;SDS011;12114;53.404;-1.502;2023-02-24T16:01:34;13.02;;;1.52;;
23866;SDS011;12114;53.404;-1.502;2023-02-24T16:03:59;7.47;;;1.50;;
23866;SDS011;12114;53.404;-1.502;2023-02-24T16:06:25;6.50;;;1.23;;
23866;SDS011;12114;53.404;-1.502;2023-02-24T16:08:51;14.15;;;2.05;;
23866;SDS011;12114;53.404;-1.502;2023-02-24T16:11:18;9.23;;;1.70;;
23866;SDS011;12114;53.404;-1.502;2023-02-24T16:13:53;10.23;;;1.90;;
23866;SDS011;12114;53.404;-1.502;2023-02-24T16:16:19;9.77;;;1.58;;
23866;SDS011;12114;53.404;-1.502;2023-02-24T16:18:45;9.50;;;1.58;;
23866;SDS011;12114;53.404;-1.502;2023-02-24T16:21:10;10.55;;;1.75;;
23866;SDS011;12114;53.404;-1.502;2023-02-24T16:23:35;9.05;;;2.00;;
23866;SDS011;12114;53.404;-1.502;2023-02-24T16:26:05;7.80;;;1.23;;
23866;SDS011;12114;53.404;-1.502;2023-02-24T16:28:31;8.88;;;1.50;;
23866;SDS011;12114;53.404;-1.502;2023-02-24T16:30:57;8.65;;;1.90;;
23866;SDS011;12114;53.404;-1.502;2023-02-24T16:33:22;7.70;;;1.52;;
23866;SDS011;12114;53.404;-1.502;2023-02-24T16:35:50;7.18;;;1.55;;
23866;SDS011;12114;53.404;-1.502;2023-02-24T16:38:19;9.23;;;1.90;;
23866;SDS011;12114;53.404;-1.502;2023-02-24T16:40:46;14.23;;;1.73;;
23866;SDS011;12114;53.404;-1.502;2023-02-24T16:43:11;10.82;;;1.40;;
23866;SDS011;12114;53.404;-1.502;2023-02-24T16:45:37;9.35;;;2.35;;
23866;SDS011;12114;53.404;-1.502;2023-02-24T16:48:04;13.45;;;2.25;;
23866;SDS011;12114;53.404;-1.502;2023-02-24T16:50:30;11.68;;;2.88;;
23866;SDS011;12114;53.404;-1.502;2023-02-24T16:52:57;6.88;;;1.65;;
23866;SDS011;12114;53.404;-1.502;2023-02-24T16:55:22;6.00;;;1.30;;
23866;SDS011;12114;53.404;-1.502;2023-02-24T16:57:48;12.45;;;1.73;;
23866;SDS011;12114;53.404;-1.502;2023-02-24T17:00:13;9.50;;;1.58;;
23866;SDS011;12114;53.404;-1.502;2023-02-24T17:02:40;12.63;;;1.50;;
23866;SDS011;12114;53.404;-1.502;2023-02-24T17:05:06;10.57;;;1.70;;
23866;SDS011;12114;53.404;-1.502;2023-02-24T17:07:31;8.55;;;1.80;;
23866;SDS011;12114;53.404;-1.502;2023-02-24T17:10:03;9.30;;;1.80;;
23866;SDS011;12114;53.404;-1.502;2023-02-24T17:12:29;11.65;;;2.08;;